createdAt,value
2023-05-14T00:19:10.285Z,13.25
2023-05-14T00:39:10.329Z,13.25
2023-05-14T00:59:10.175Z,13.25
2023-05-14T01:19:10.218Z,13.24
2023-05-14T01:39:10.145Z,13.24
2023-05-14T01:59:09.852Z,13.23
2023-05-14T02:19:10.205Z,13.21
2023-05-14T02:39:10.090Z,13.2
2023-05-14T02:59:10.090Z,13.19
2023-05-14T03:19:10.209Z,13.17
2023-05-14T03:39:10.064Z,13.16
2023-05-14T03:59:10.037Z,13.15
2023-05-14T07:19:09.972Z,13.02
2023-05-14T07:39:09.839Z,13
2023-05-14T07:59:09.834Z,12.97
2023-05-14T08:19:09.820Z,12.95
2023-05-14T08:59:09.721Z,12.94
2023-05-14T09:19:09.475Z,12.93
2023-05-14T09:39:09.686Z,12.92
2023-05-14T09:59:09.688Z,12.9
2023-05-14T10:19:09.673Z,12.88
2023-05-14T10:39:09.583Z,12.86
2023-05-14T10:59:09.539Z,12.85
2023-05-14T11:19:09.554Z,12.85
2023-05-14T11:39:09.529Z,12.84
2023-05-14T12:19:09.600Z,12.84
2023-05-14T12:59:09.401Z,12.84
2023-05-14T13:19:09.500Z,12.84
2023-05-14T14:19:09.397Z,12.84
2023-05-14T14:59:09.267Z,12.85
2023-05-14T15:39:09.179Z,12.86
2023-05-14T15:59:09.214Z,12.88
2023-05-14T16:19:09.195Z,12.91
2023-05-14T16:39:09.097Z,12.93
2023-05-14T16:59:08.784Z,12.94
2023-05-14T17:19:09.106Z,12.95
2023-05-14T17:39:08.989Z,12.96
2023-05-14T17:59:08.992Z,12.99
2023-05-14T18:19:09.034Z,13.03
2023-05-14T18:39:08.705Z,13.04
2023-05-14T18:59:08.940Z,13.05
2023-05-14T19:19:08.929Z,13.06
2023-05-14T19:59:08.773Z,13.11
2023-05-14T20:19:08.803Z,13.13
2023-05-14T20:39:08.806Z,13.15
2023-05-14T20:59:08.770Z,13.15
2023-05-14T21:19:08.811Z,13.16
2023-05-14T21:39:08.694Z,13.16
2023-05-14T21:59:08.682Z,13.18
2023-05-14T22:19:08.644Z,13.19
2023-05-14T22:39:09.081Z,13.21
2023-05-14T22:59:08.613Z,13.22
2023-05-14T23:19:08.700Z,13.22
2023-05-14T23:39:08.565Z,13.23
2023-05-14T23:59:08.527Z,13.24
